sensor_id;sensor_type;location;lat;lon;timestamp;temperature;humidity
45066;DHT22;30830;53.704;10.004;2023-09-19T00:01:14;16.10;99.90
45066;DHT22;30830;53.704;10.004;2023-09-19T00:03:40;16.10;99.90
45066;DHT22;30830;53.704;10.004;2023-09-19T00:06:07;16.10;99.90
45066;DHT22;30830;53.704;10.004;2023-09-19T00:08:33;16.10;99.90
45066;DHT22;30830;53.704;10.004;2023-09-19T00:10:59;16.10;99.90
45066;DHT22;30830;53.704;10.004;2023-09-19T00:13:32;16.10;99.90
45066;DHT22;30830;53.704;10.004;2023-09-19T00:15:59;16.00;99.90
45066;DHT22;30830;53.704;10.004;2023-09-19T00:18:25;16.00;99.90
45066;DHT22;30830;53.704;10.004;2023-09-19T00:20:58;16.00;99.90
45066;DHT22;30830;53.704;10.004;2023-09-19T00:23:24;16.00;99.90
45066;DHT22;30830;53.704;10.004;2023-09-19T00:25:50;16.10;99.90
45066;DHT22;30830;53.704;10.004;2023-09-19T00:28:17;16.00;99.90
45066;DHT22;30830;53.704;10.004;2023-09-19T00:30:44;16.10;99.90
45066;DHT22;30830;53.704;10.004;2023-09-19T00:33:10;16.10;99.90
45066;DHT22;30830;53.704;10.004;2023-09-19T00:35:49;16.10;99.90
45066;DHT22;30830;53.704;10.004;2023-09-19T00:38:14;16.10;99.90
45066;DHT22;30830;53.704;10.004;2023-09-19T00:40:47;16.10;99.90
45066;DHT22;30830;53.704;10.004;2023-09-19T00:43:12;16.00;99.90
45066;DHT22;30830;53.704;10.004;2023-09-19T00:45:39;16.10;99.90
45066;DHT22;30830;53.704;10.004;2023-09-19T00:48:08;16.00;99.90
45066;DHT22;30830;53.704;10.004;2023-09-19T00:50:35;16.00;99.90
45066;DHT22;30830;53.704;10.004;2023-09-19T00:53:01;16.00;99.90
45066;DHT22;30830;53.704;10.004;2023-09-19T00:55:34;16.00;99.90
45066;DHT22;30830;53.704;10.004;2023-09-19T00:58:00;16.00;99.90
45066;DHT22;30830;53.704;10.004;2023-09-19T01:00:25;15.90;99.90
45066;DHT22;30830;53.704;10.004;2023-09-19T01:02:51;15.90;99.90
45066;DHT22;30830;53.704;10.004;2023-09-19T01:05:17;16.00;99.90
45066;DHT22;30830;53.704;10.004;2023-09-19T01:07:43;16.00;99.90
45066;DHT22;30830;53.704;10.004;2023-09-19T01:10:17;16.00;99.90
45066;DHT22;30830;53.704;10.004;2023-09-19T01:21:15;16.00;99.90
45066;DHT22;30830;53.704;10.004;2023-09-19T01:27:14;15.90;99.90
45066;DHT22;30830;53.704;10.004;2023-09-19T01:29:46;15.80;99.90
45066;DHT22;30830;53.704;10.004;2023-09-19T01:32:15;15.80;99.90
45066;DHT22;30830;53.704;10.004;2023-09-19T01:34:55;15.80;99.90
45066;DHT22;30830;53.704;10.004;2023-09-19T01:37:24;15.80;99.90
45066;DHT22;30830;53.704;10.004;2023-09-19T01:40:10;15.80;99.90
45066;DHT22;30830;53.704;10.004;2023-09-19T01:43:04;15.80;99.90
45066;DHT22;30830;53.704;10.004;2023-09-19T01:45:57;15.80;99.90
45066;DHT22;30830;53.704;10.004;2023-09-19T01:48:54;15.70;99.90
45066;DHT22;30830;53.704;10.004;2023-09-19T01:51:48;15.70;99.90
45066;DHT22;30830;53.704;10.004;2023-09-19T01:54:20;15.70;99.90
45066;DHT22;30830;53.704;10.004;2023-09-19T01:57:09;15.70;99.90
45066;DHT22;30830;53.704;10.004;2023-09-19T01:59:47;15.70;99.90
45066;DHT22;30830;53.704;10.004;2023-09-19T02:02:15;15.70;99.90
45066;DHT22;30830;53.704;10.004;2023-09-19T02:04:40;15.70;99.90
45066;DHT22;30830;53.704;10.004;2023-09-19T02:07:06;15.70;99.90
45066;DHT22;30830;53.704;10.004;2023-09-19T02:09:33;15.60;99.90
45066;DHT22;30830;53.704;10.004;2023-09-19T02:12:01;15.60;99.90
45066;DHT22;30830;53.704;10.004;2023-09-19T02:14:29;15.60;99.90
45066;DHT22;30830;53.704;10.004;2023-09-19T02:16:55;15.60;99.90
45066;DHT22;30830;53.704;10.004;2023-09-19T02:19:21;15.50;99.90
45066;DHT22;30830;53.704;10.004;2023-09-19T02:21:47;15.50;99.90
45066;DHT22;30830;53.704;10.004;2023-09-19T02:24:14;15.50;99.90
45066;DHT22;30830;53.704;10.004;2023-09-19T02:26:41;15.40;99.90
45066;DHT22;30830;53.704;10.004;2023-09-19T02:29:06;15.40;99.90
45066;DHT22;30830;53.704;10.004;2023-09-19T02:31:32;15.50;99.90
45066;DHT22;30830;53.704;10.004;2023-09-19T02:33:57;15.40;99.90
45066;DHT22;30830;53.704;10.004;2023-09-19T02:36:23;15.50;99.90
45066;DHT22;30830;53.704;10.004;2023-09-19T02:38:49;15.40;99.90
45066;DHT22;30830;53.704;10.004;2023-09-19T02:41:15;15.40;99.90
45066;DHT22;30830;53.704;10.004;2023-09-19T02:43:40;15.40;99.90
45066;DHT22;30830;53.704;10.004;2023-09-19T02:46:06;15.30;99.90
45066;DHT22;30830;53.704;10.004;2023-09-19T02:48:32;15.30;99.90
45066;DHT22;30830;53.704;10.004;2023-09-19T02:50:59;15.30;99.90
45066;DHT22;30830;53.704;10.004;2023-09-19T02:53:25;15.30;99.90
45066;DHT22;30830;53.704;10.004;2023-09-19T02:55:51;15.30;99.90
45066;DHT22;30830;53.704;10.004;2023-09-19T02:58:18;15.20;99.90
45066;DHT22;30830;53.704;10.004;2023-09-19T03:00:43;15.20;99.90
45066;DHT22;30830;53.704;10.004;2023-09-19T03:03:13;15.20;99.90
45066;DHT22;30830;53.704;10.004;2023-09-19T03:05:38;15.20;99.90
45066;DHT22;30830;53.704;10.004;2023-09-19T03:08:05;15.20;99.90
45066;DHT22;30830;53.704;10.004;2023-09-19T03:10:31;15.20;99.90
45066;DHT22;30830;53.704;10.004;2023-09-19T03:12:58;15.30;99.90
45066;DHT22;30830;53.704;10.004;2023-09-19T03:15:25;15.30;99.90
45066;DHT22;30830;53.704;10.004;2023-09-19T03:17:51;15.30;99.90
45066;DHT22;30830;53.704;10.004;2023-09-19T03:20:18;15.30;99.90
45066;DHT22;30830;53.704;10.004;2023-09-19T03:22:45;15.20;99.90
45066;DHT22;30830;53.704;10.004;2023-09-19T03:25:11;15.20;99.90
45066;DHT22;30830;53.704;10.004;2023-09-19T03:27:40;15.20;99.90
45066;DHT22;30830;53.704;10.004;2023-09-19T03:30:07;15.30;99.90
45066;DHT22;30830;53.704;10.004;2023-09-19T03:32:37;15.30;99.90
45066;DHT22;30830;53.704;10.004;2023-09-19T03:35:08;15.20;99.90
45066;DHT22;30830;53.704;10.004;2023-09-19T03:37:43;15.20;99.90
45066;DHT22;30830;53.704;10.004;2023-09-19T03:40:10;15.20;99.90
45066;DHT22;30830;53.704;10.004;2023-09-19T03:42:40;15.20;99.90
45066;DHT22;30830;53.704;10.004;2023-09-19T03:45:08;15.20;99.90
45066;DHT22;30830;53.704;10.004;2023-09-19T03:47:37;15.20;99.90
45066;DHT22;30830;53.704;10.004;2023-09-19T03:50:05;15.20;99.90
45066;DHT22;30830;53.704;10.004;2023-09-19T03:52:30;15.20;99.90
45066;DHT22;30830;53.704;10.004;2023-09-19T03:54:56;15.20;99.90
45066;DHT22;30830;53.704;10.004;2023-09-19T03:57:21;15.20;99.90
45066;DHT22;30830;53.704;10.004;2023-09-19T03:59:47;15.10;99.90
45066;DHT22;30830;53.704;10.004;2023-09-19T04:02:13;15.10;99.90
45066;DHT22;30830;53.704;10.004;2023-09-19T04:04:48;15.00;99.90
45066;DHT22;30830;53.704;10.004;2023-09-19T04:07:13;15.00;99.90
45066;DHT22;30830;53.704;10.004;2023-09-19T04:09:39;15.00;99.90
45066;DHT22;30830;53.704;10.004;2023-09-19T04:12:05;15.00;99.90
45066;DHT22;30830;53.704;10.004;2023-09-19T04:14:30;15.00;99.90
45066;DHT22;30830;53.704;10.004;2023-09-19T04:16:56;14.90;99.90
45066;DHT22;30830;53.704;10.004;2023-09-19T04:19:21;15.00;99.90
45066;DHT22;30830;53.704;10.004;2023-09-19T04:21:47;14.90;99.90
45066;DHT22;30830;53.704;10.004;2023-09-19T04:24:12;14.90;99.90
45066;DHT22;30830;53.704;10.004;2023-09-19T04:26:38;14.90;99.90
45066;DHT22;30830;53.704;10.004;2023-09-19T04:29:04;14.90;99.90
45066;DHT22;30830;53.704;10.004;2023-09-19T04:31:31;14.80;99.90
45066;DHT22;30830;53.704;10.004;2023-09-19T04:33:57;14.80;99.90
45066;DHT22;30830;53.704;10.004;2023-09-19T04:36:24;14.80;99.90
45066;DHT22;30830;53.704;10.004;2023-09-19T04:38:50;14.80;99.90
45066;DHT22;30830;53.704;10.004;2023-09-19T04:41:15;14.70;99.90
45066;DHT22;30830;53.704;10.004;2023-09-19T04:43:41;14.70;99.90
45066;DHT22;30830;53.704;10.004;2023-09-19T04:46:06;14.70;99.90
45066;DHT22;30830;53.704;10.004;2023-09-19T04:48:32;14.60;99.90
45066;DHT22;30830;53.704;10.004;2023-09-19T04:51:00;14.60;99.90
45066;DHT22;30830;53.704;10.004;2023-09-19T04:53:25;14.50;99.90
45066;DHT22;30830;53.704;10.004;2023-09-19T04:55:51;14.50;99.90
45066;DHT22;30830;53.704;10.004;2023-09-19T04:58:21;14.50;99.90
45066;DHT22;30830;53.704;10.004;2023-09-19T05:00:47;14.40;99.90
45066;DHT22;30830;53.704;10.004;2023-09-19T05:03:13;14.40;99.90
45066;DHT22;30830;53.704;10.004;2023-09-19T05:05:38;14.40;99.90
45066;DHT22;30830;53.704;10.004;2023-09-19T05:08:06;14.40;99.90
45066;DHT22;30830;53.704;10.004;2023-09-19T05:10:34;14.40;99.90
45066;DHT22;30830;53.704;10.004;2023-09-19T05:13:03;14.30;99.90
45066;DHT22;30830;53.704;10.004;2023-09-19T05:15:30;14.30;99.90
45066;DHT22;30830;53.704;10.004;2023-09-19T05:17:56;14.30;99.90
45066;DHT22;30830;53.704;10.004;2023-09-19T05:20:22;14.20;99.90
45066;DHT22;30830;53.704;10.004;2023-09-19T05:23:02;14.20;99.90
45066;DHT22;30830;53.704;10.004;2023-09-19T05:25:32;14.10;99.90
45066;DHT22;30830;53.704;10.004;2023-09-19T05:27:58;14.20;99.90
45066;DHT22;30830;53.704;10.004;2023-09-19T05:30:27;14.20;99.90
45066;DHT22;30830;53.704;10.004;2023-09-19T05:32:53;14.10;99.90
45066;DHT22;30830;53.704;10.004;2023-09-19T05:35:20;14.10;99.90
45066;DHT22;30830;53.704;10.004;2023-09-19T05:37:47;14.10;99.90
45066;DHT22;30830;53.704;10.004;2023-09-19T05:40:14;14.00;99.90
45066;DHT22;30830;53.704;10.004;2023-09-19T05:42:41;14.00;99.90
45066;DHT22;30830;53.704;10.004;2023-09-19T05:45:09;14.00;99.90
45066;DHT22;30830;53.704;10.004;2023-09-19T05:47:38;14.00;99.90
45066;DHT22;30830;53.704;10.004;2023-09-19T05:50:03;14.00;99.90
45066;DHT22;30830;53.704;10.004;2023-09-19T05:52:30;14.00;99.90
45066;DHT22;30830;53.704;10.004;2023-09-19T05:54:56;14.00;99.90
45066;DHT22;30830;53.704;10.004;2023-09-19T05:57:22;14.00;99.90
45066;DHT22;30830;53.704;10.004;2023-09-19T05:59:47;14.00;99.90
45066;DHT22;30830;53.704;10.004;2023-09-19T06:02:16;14.00;99.90
45066;DHT22;30830;53.704;10.004;2023-09-19T06:04:41;14.00;99.90
45066;DHT22;30830;53.704;10.004;2023-09-19T06:07:07;14.00;99.90
45066;DHT22;30830;53.704;10.004;2023-09-19T06:09:33;14.10;99.90
45066;DHT22;30830;53.704;10.004;2023-09-19T06:11:59;14.10;99.90
45066;DHT22;30830;53.704;10.004;2023-09-19T06:14:28;14.20;99.90
45066;DHT22;30830;53.704;10.004;2023-09-19T06:16:54;14.30;99.90
45066;DHT22;30830;53.704;10.004;2023-09-19T06:19:20;14.30;99.90
45066;DHT22;30830;53.704;10.004;2023-09-19T06:21:48;14.40;99.90
45066;DHT22;30830;53.704;10.004;2023-09-19T06:24:14;14.40;99.90
45066;DHT22;30830;53.704;10.004;2023-09-19T06:26:40;14.40;99.90
45066;DHT22;30830;53.704;10.004;2023-09-19T06:29:05;14.40;99.90
45066;DHT22;30830;53.704;10.004;2023-09-19T06:31:35;14.50;99.90
45066;DHT22;30830;53.704;10.004;2023-09-19T06:34:00;14.50;99.90
45066;DHT22;30830;53.704;10.004;2023-09-19T06:36:26;14.50;99.90
45066;DHT22;30830;53.704;10.004;2023-09-19T06:38:52;14.50;99.90
45066;DHT22;30830;53.704;10.004;2023-09-19T06:41:18;14.50;99.90
45066;DHT22;30830;53.704;10.004;2023-09-19T06:43:43;14.50;99.90
45066;DHT22;30830;53.704;10.004;2023-09-19T06:46:09;14.60;99.90
45066;DHT22;30830;53.704;10.004;2023-09-19T06:48:35;14.60;99.90
45066;DHT22;30830;53.704;10.004;2023-09-19T06:51:00;14.60;99.90
45066;DHT22;30830;53.704;10.004;2023-09-19T06:53:31;14.60;99.90
45066;DHT22;30830;53.704;10.004;2023-09-19T06:55:58;14.70;99.90
45066;DHT22;30830;53.704;10.004;2023-09-19T06:58:23;14.60;99.90
45066;DHT22;30830;53.704;10.004;2023-09-19T07:00:49;14.70;99.90
45066;DHT22;30830;53.704;10.004;2023-09-19T07:03:15;14.70;99.90
45066;DHT22;30830;53.704;10.004;2023-09-19T07:05:44;14.70;99.90
45066;DHT22;30830;53.704;10.004;2023-09-19T07:08:10;14.70;99.90
45066;DHT22;30830;53.704;10.004;2023-09-19T07:10:38;14.80;99.90
45066;DHT22;30830;53.704;10.004;2023-09-19T07:13:07;14.80;99.90
45066;DHT22;30830;53.704;10.004;2023-09-19T07:15:36;14.80;99.90
45066;DHT22;30830;53.704;10.004;2023-09-19T07:18:05;14.80;99.90
45066;DHT22;30830;53.704;10.004;2023-09-19T07:20:31;14.90;99.90
45066;DHT22;30830;53.704;10.004;2023-09-19T07:22:58;14.90;99.90
45066;DHT22;30830;53.704;10.004;2023-09-19T07:25:30;15.00;99.90
45066;DHT22;30830;53.704;10.004;2023-09-19T07:27:57;15.00;99.90
45066;DHT22;30830;53.704;10.004;2023-09-19T07:30:25;15.10;99.90
45066;DHT22;30830;53.704;10.004;2023-09-19T07:32:51;15.10;99.90
45066;DHT22;30830;53.704;10.004;2023-09-19T07:35:17;15.20;99.90
45066;DHT22;30830;53.704;10.004;2023-09-19T07:37:45;15.10;99.90
45066;DHT22;30830;53.704;10.004;2023-09-19T07:40:15;15.10;99.90
45066;DHT22;30830;53.704;10.004;2023-09-19T07:42:40;15.20;99.90
45066;DHT22;30830;53.704;10.004;2023-09-19T07:45:09;15.20;99.90
45066;DHT22;30830;53.704;10.004;2023-09-19T07:47:39;15.20;99.90
45066;DHT22;30830;53.704;10.004;2023-09-19T07:50:05;15.20;99.90
45066;DHT22;30830;53.704;10.004;2023-09-19T07:52:32;15.20;99.90
45066;DHT22;30830;53.704;10.004;2023-09-19T07:54:58;15.20;99.90
45066;DHT22;30830;53.704;10.004;2023-09-19T07:57:26;15.20;99.90
45066;DHT22;30830;53.704;10.004;2023-09-19T07:59:53;15.20;99.90
45066;DHT22;30830;53.704;10.004;2023-09-19T08:02:19;15.20;99.90
45066;DHT22;30830;53.704;10.004;2023-09-19T08:04:45;15.20;99.90
45066;DHT22;30830;53.704;10.004;2023-09-19T08:07:15;15.20;99.90
45066;DHT22;30830;53.704;10.004;2023-09-19T08:09:41;15.20;99.90
45066;DHT22;30830;53.704;10.004;2023-09-19T08:12:07;15.20;99.90
45066;DHT22;30830;53.704;10.004;2023-09-19T08:14:36;15.20;99.90
45066;DHT22;30830;53.704;10.004;2023-09-19T08:17:01;15.20;99.90
45066;DHT22;30830;53.704;10.004;2023-09-19T08:19:27;15.30;99.90
45066;DHT22;30830;53.704;10.004;2023-09-19T08:22:00;15.30;99.90
45066;DHT22;30830;53.704;10.004;2023-09-19T08:24:30;15.30;99.90
45066;DHT22;30830;53.704;10.004;2023-09-19T08:26:56;15.30;99.90
45066;DHT22;30830;53.704;10.004;2023-09-19T08:29:23;15.40;99.90
45066;DHT22;30830;53.704;10.004;2023-09-19T08:31:56;15.50;99.90
45066;DHT22;30830;53.704;10.004;2023-09-19T08:34:23;15.50;99.90
45066;DHT22;30830;53.704;10.004;2023-09-19T08:36:55;15.50;99.90
45066;DHT22;30830;53.704;10.004;2023-09-19T08:39:24;15.60;99.90
45066;DHT22;30830;53.704;10.004;2023-09-19T08:41:56;15.60;99.90
45066;DHT22;30830;53.704;10.004;2023-09-19T08:44:22;15.50;99.90
45066;DHT22;30830;53.704;10.004;2023-09-19T08:46:48;15.50;99.90
45066;DHT22;30830;53.704;10.004;2023-09-19T08:49:29;15.50;99.90
45066;DHT22;30830;53.704;10.004;2023-09-19T08:52:10;15.50;99.90
45066;DHT22;30830;53.704;10.004;2023-09-19T08:54:41;15.60;99.90
45066;DHT22;30830;53.704;10.004;2023-09-19T08:57:08;15.50;99.90
45066;DHT22;30830;53.704;10.004;2023-09-19T08:59:37;15.60;99.90
45066;DHT22;30830;53.704;10.004;2023-09-19T09:02:10;15.60;99.90
45066;DHT22;30830;53.704;10.004;2023-09-19T09:04:40;15.60;99.90
45066;DHT22;30830;53.704;10.004;2023-09-19T09:07:11;15.60;99.90
45066;DHT22;30830;53.704;10.004;2023-09-19T09:09:37;15.60;99.90
45066;DHT22;30830;53.704;10.004;2023-09-19T09:12:04;15.60;99.90
45066;DHT22;30830;53.704;10.004;2023-09-19T09:14:30;15.60;99.90
45066;DHT22;30830;53.704;10.004;2023-09-19T09:16:56;15.70;99.90
45066;DHT22;30830;53.704;10.004;2023-09-19T09:19:24;15.70;99.90
45066;DHT22;30830;53.704;10.004;2023-09-19T09:21:51;15.80;99.90
45066;DHT22;30830;53.704;10.004;2023-09-19T09:24:29;15.80;99.90
45066;DHT22;30830;53.704;10.004;2023-09-19T09:26:59;15.80;99.90
45066;DHT22;30830;53.704;10.004;2023-09-19T09:29:45;15.90;99.90
45066;DHT22;30830;53.704;10.004;2023-09-19T09:32:29;15.90;99.90
45066;DHT22;30830;53.704;10.004;2023-09-19T09:34:59;16.00;99.90
45066;DHT22;30830;53.704;10.004;2023-09-19T09:37:26;16.10;99.90
45066;DHT22;30830;53.704;10.004;2023-09-19T09:39:57;16.10;99.90
45066;DHT22;30830;53.704;10.004;2023-09-19T09:42:30;16.10;99.90
45066;DHT22;30830;53.704;10.004;2023-09-19T09:45:18;16.20;99.90
45066;DHT22;30830;53.704;10.004;2023-09-19T09:48:03;16.30;99.90
45066;DHT22;30830;53.704;10.004;2023-09-19T09:50:30;16.30;99.90
45066;DHT22;30830;53.704;10.004;2023-09-19T09:53:22;16.40;99.90
45066;DHT22;30830;53.704;10.004;2023-09-19T09:56:04;16.40;99.90
45066;DHT22;30830;53.704;10.004;2023-09-19T09:58:37;16.50;99.90
45066;DHT22;30830;53.704;10.004;2023-09-19T10:01:04;16.60;99.90
45066;DHT22;30830;53.704;10.004;2023-09-19T10:03:40;16.70;99.90
45066;DHT22;30830;53.704;10.004;2023-09-19T10:06:13;16.80;99.90
45066;DHT22;30830;53.704;10.004;2023-09-19T10:09:05;16.80;99.90
45066;DHT22;30830;53.704;10.004;2023-09-19T10:11:41;16.80;99.90
45066;DHT22;30830;53.704;10.004;2023-09-19T10:14:10;16.80;99.90
45066;DHT22;30830;53.704;10.004;2023-09-19T10:16:40;16.90;99.90
45066;DHT22;30830;53.704;10.004;2023-09-19T10:19:09;16.80;99.90
45066;DHT22;30830;53.704;10.004;2023-09-19T10:21:36;16.90;99.90
45066;DHT22;30830;53.704;10.004;2023-09-19T10:24:05;16.90;99.90
45066;DHT22;30830;53.704;10.004;2023-09-19T10:26:35;17.00;99.90
45066;DHT22;30830;53.704;10.004;2023-09-19T10:29:01;17.00;99.90
45066;DHT22;30830;53.704;10.004;2023-09-19T10:31:29;17.10;99.90
45066;DHT22;30830;53.704;10.004;2023-09-19T10:34:03;17.00;99.90
45066;DHT22;30830;53.704;10.004;2023-09-19T10:36:32;17.00;99.90
45066;DHT22;30830;53.704;10.004;2023-09-19T10:39:02;17.10;99.90
45066;DHT22;30830;53.704;10.004;2023-09-19T10:41:32;17.10;99.90
45066;DHT22;30830;53.704;10.004;2023-09-19T10:44:03;17.20;99.90
45066;DHT22;30830;53.704;10.004;2023-09-19T10:46:32;17.30;99.90
45066;DHT22;30830;53.704;10.004;2023-09-19T10:49:01;17.30;99.90
45066;DHT22;30830;53.704;10.004;2023-09-19T10:51:31;17.30;99.90
45066;DHT22;30830;53.704;10.004;2023-09-19T10:54:06;17.20;99.90
45066;DHT22;30830;53.704;10.004;2023-09-19T10:56:38;17.20;99.90
45066;DHT22;30830;53.704;10.004;2023-09-19T10:59:08;17.20;99.90
45066;DHT22;30830;53.704;10.004;2023-09-19T11:01:56;17.20;99.90
45066;DHT22;30830;53.704;10.004;2023-09-19T11:04:37;17.30;99.90
45066;DHT22;30830;53.704;10.004;2023-09-19T11:07:12;17.30;99.90
45066;DHT22;30830;53.704;10.004;2023-09-19T11:14:56;17.50;99.90
45066;DHT22;30830;53.704;10.004;2023-09-19T11:17:31;17.60;99.90
45066;DHT22;30830;53.704;10.004;2023-09-19T11:30:50;17.80;99.90
45066;DHT22;30830;53.704;10.004;2023-09-19T11:33:26;17.80;99.90
45066;DHT22;30830;53.704;10.004;2023-09-19T11:36:14;17.80;99.90
45066;DHT22;30830;53.704;10.004;2023-09-19T11:46:24;17.80;99.90
45066;DHT22;30830;53.704;10.004;2023-09-19T11:48:51;18.00;99.90
45066;DHT22;30830;53.704;10.004;2023-09-19T11:51:21;18.10;99.90
45066;DHT22;30830;53.704;10.004;2023-09-19T11:53:50;18.10;99.90
45066;DHT22;30830;53.704;10.004;2023-09-19T11:56:17;18.20;99.90
45066;DHT22;30830;53.704;10.004;2023-09-19T11:58:44;18.10;99.90
45066;DHT22;30830;53.704;10.004;2023-09-19T12:01:13;18.10;99.90
45066;DHT22;30830;53.704;10.004;2023-09-19T12:03:43;18.10;99.90
45066;DHT22;30830;53.704;10.004;2023-09-19T12:06:14;18.10;99.90
45066;DHT22;30830;53.704;10.004;2023-09-19T12:08:41;18.10;99.90
45066;DHT22;30830;53.704;10.004;2023-09-19T12:11:15;18.10;99.90
45066;DHT22;30830;53.704;10.004;2023-09-19T12:13:42;18.10;99.90
45066;DHT22;30830;53.704;10.004;2023-09-19T12:16:17;18.10;99.90
45066;DHT22;30830;53.704;10.004;2023-09-19T12:18:44;18.20;99.90
45066;DHT22;30830;53.704;10.004;2023-09-19T12:21:27;18.20;99.90
45066;DHT22;30830;53.704;10.004;2023-09-19T12:24:12;18.30;99.90
45066;DHT22;30830;53.704;10.004;2023-09-19T12:26:45;18.30;99.90
45066;DHT22;30830;53.704;10.004;2023-09-19T12:29:22;18.30;99.90
45066;DHT22;30830;53.704;10.004;2023-09-19T12:31:55;18.30;99.90
45066;DHT22;30830;53.704;10.004;2023-09-19T12:34:32;18.20;99.90
45066;DHT22;30830;53.704;10.004;2023-09-19T12:37:08;18.20;99.90
45066;DHT22;30830;53.704;10.004;2023-09-19T12:39:42;18.20;99.90
45066;DHT22;30830;53.704;10.004;2023-09-19T12:42:12;18.20;99.90
45066;DHT22;30830;53.704;10.004;2023-09-19T12:44:42;18.20;99.90
45066;DHT22;30830;53.704;10.004;2023-09-19T12:47:14;18.20;99.90
45066;DHT22;30830;53.704;10.004;2023-09-19T12:50:13;18.30;99.90
45066;DHT22;30830;53.704;10.004;2023-09-19T12:52:40;18.30;99.90
45066;DHT22;30830;53.704;10.004;2023-09-19T12:55:06;18.30;99.90
45066;DHT22;30830;53.704;10.004;2023-09-19T12:57:36;18.30;99.90
45066;DHT22;30830;53.704;10.004;2023-09-19T13:00:03;18.30;99.90
45066;DHT22;30830;53.704;10.004;2023-09-19T13:02:31;18.40;99.90
45066;DHT22;30830;53.704;10.004;2023-09-19T13:04:56;18.30;99.90
45066;DHT22;30830;53.704;10.004;2023-09-19T13:07:42;18.30;99.90
45066;DHT22;30830;53.704;10.004;2023-09-19T13:10:13;18.30;99.90
45066;DHT22;30830;53.704;10.004;2023-09-19T13:12:42;18.30;99.90
45066;DHT22;30830;53.704;10.004;2023-09-19T13:15:10;18.40;99.90
45066;DHT22;30830;53.704;10.004;2023-09-19T13:17:49;18.40;99.90
45066;DHT22;30830;53.704;10.004;2023-09-19T13:20:25;18.40;99.90
45066;DHT22;30830;53.704;10.004;2023-09-19T13:22:53;18.30;99.90
45066;DHT22;30830;53.704;10.004;2023-09-19T13:25:21;18.30;99.90
45066;DHT22;30830;53.704;10.004;2023-09-19T13:27:49;18.40;99.90
45066;DHT22;30830;53.704;10.004;2023-09-19T13:30:20;18.40;99.90
45066;DHT22;30830;53.704;10.004;2023-09-19T13:32:46;18.30;99.90
45066;DHT22;30830;53.704;10.004;2023-09-19T13:35:14;18.30;99.90
45066;DHT22;30830;53.704;10.004;2023-09-19T13:37:40;18.30;99.90
45066;DHT22;30830;53.704;10.004;2023-09-19T13:40:13;18.30;99.90
45066;DHT22;30830;53.704;10.004;2023-09-19T13:42:39;18.20;99.90
45066;DHT22;30830;53.704;10.004;2023-09-19T13:45:08;18.20;99.90
45066;DHT22;30830;53.704;10.004;2023-09-19T13:47:37;18.20;99.90
45066;DHT22;30830;53.704;10.004;2023-09-19T13:50:04;18.20;99.90
45066;DHT22;30830;53.704;10.004;2023-09-19T13:52:33;18.10;99.90
45066;DHT22;30830;53.704;10.004;2023-09-19T13:54:59;18.10;99.90
45066;DHT22;30830;53.704;10.004;2023-09-19T13:57:25;18.10;99.90
45066;DHT22;30830;53.704;10.004;2023-09-19T13:59:52;18.10;99.90
45066;DHT22;30830;53.704;10.004;2023-09-19T14:02:19;18.10;99.90
45066;DHT22;30830;53.704;10.004;2023-09-19T14:04:44;18.10;99.90
45066;DHT22;30830;53.704;10.004;2023-09-19T14:07:10;18.10;99.90
45066;DHT22;30830;53.704;10.004;2023-09-19T14:09:36;18.10;99.90
45066;DHT22;30830;53.704;10.004;2023-09-19T14:12:02;18.10;99.90
45066;DHT22;30830;53.704;10.004;2023-09-19T14:14:27;18.20;99.90
45066;DHT22;30830;53.704;10.004;2023-09-19T14:16:53;18.20;99.90
45066;DHT22;30830;53.704;10.004;2023-09-19T14:19:19;18.20;99.90
45066;DHT22;30830;53.704;10.004;2023-09-19T14:21:44;18.20;99.90
45066;DHT22;30830;53.704;10.004;2023-09-19T14:24:10;18.20;99.90
45066;DHT22;30830;53.704;10.004;2023-09-19T14:26:37;18.30;99.90
45066;DHT22;30830;53.704;10.004;2023-09-19T14:29:03;18.30;99.90
45066;DHT22;30830;53.704;10.004;2023-09-19T14:31:28;18.30;99.90
45066;DHT22;30830;53.704;10.004;2023-09-19T14:33:55;18.30;99.90
45066;DHT22;30830;53.704;10.004;2023-09-19T14:36:24;18.40;99.90
45066;DHT22;30830;53.704;10.004;2023-09-19T14:38:52;18.30;99.90
45066;DHT22;30830;53.704;10.004;2023-09-19T14:41:22;18.40;99.90
45066;DHT22;30830;53.704;10.004;2023-09-19T14:43:53;18.30;99.90
45066;DHT22;30830;53.704;10.004;2023-09-19T14:46:20;18.30;99.90
45066;DHT22;30830;53.704;10.004;2023-09-19T14:48:46;18.30;99.90
45066;DHT22;30830;53.704;10.004;2023-09-19T14:51:16;18.30;99.90
45066;DHT22;30830;53.704;10.004;2023-09-19T14:53:42;18.20;99.90
45066;DHT22;30830;53.704;10.004;2023-09-19T14:56:09;18.20;99.90
45066;DHT22;30830;53.704;10.004;2023-09-19T14:58:35;18.20;99.90
45066;DHT22;30830;53.704;10.004;2023-09-19T15:01:11;18.20;99.90
45066;DHT22;30830;53.704;10.004;2023-09-19T15:03:38;18.20;99.90
45066;DHT22;30830;53.704;10.004;2023-09-19T15:06:06;18.20;99.90
45066;DHT22;30830;53.704;10.004;2023-09-19T15:08:33;18.20;99.90
45066;DHT22;30830;53.704;10.004;2023-09-19T15:11:07;18.20;99.90
45066;DHT22;30830;53.704;10.004;2023-09-19T15:13:36;18.20;99.90
45066;DHT22;30830;53.704;10.004;2023-09-19T15:16:03;18.20;99.90
45066;DHT22;30830;53.704;10.004;2023-09-19T15:18:29;18.20;99.90
45066;DHT22;30830;53.704;10.004;2023-09-19T15:21:02;18.10;99.90
45066;DHT22;30830;53.704;10.004;2023-09-19T15:23:29;18.10;99.90
45066;DHT22;30830;53.704;10.004;2023-09-19T15:25:55;18.00;99.90
45066;DHT22;30830;53.704;10.004;2023-09-19T15:28:21;18.10;99.90
45066;DHT22;30830;53.704;10.004;2023-09-19T15:30:49;18.00;99.90
45066;DHT22;30830;53.704;10.004;2023-09-19T15:33:14;18.00;99.90
45066;DHT22;30830;53.704;10.004;2023-09-19T15:35:40;18.00;99.90
45066;DHT22;30830;53.704;10.004;2023-09-19T15:38:05;18.00;99.90
45066;DHT22;30830;53.704;10.004;2023-09-19T15:40:31;18.00;99.90
45066;DHT22;30830;53.704;10.004;2023-09-19T15:42:56;18.00;99.90
45066;DHT22;30830;53.704;10.004;2023-09-19T15:45:23;18.00;99.90
45066;DHT22;30830;53.704;10.004;2023-09-19T15:47:50;18.00;99.90
45066;DHT22;30830;53.704;10.004;2023-09-19T15:50:16;17.90;99.90
45066;DHT22;30830;53.704;10.004;2023-09-19T15:52:42;17.90;99.90
45066;DHT22;30830;53.704;10.004;2023-09-19T15:55:08;17.90;99.90
45066;DHT22;30830;53.704;10.004;2023-09-19T15:57:36;17.80;99.90
45066;DHT22;30830;53.704;10.004;2023-09-19T16:00:02;17.90;99.90
45066;DHT22;30830;53.704;10.004;2023-09-19T16:02:29;17.90;99.90